sensor_id;sensor_type;location;lat;lon;timestamp;temperature;humidity
10143;DHT22;5112;54.088;13.446;2024-02-21T00:07:59;8.30;99.90
10143;DHT22;5112;54.088;13.446;2024-02-21T00:18:02;8.20;99.90
10143;DHT22;5112;54.088;13.446;2024-02-21T00:28:05;8.30;99.90
10143;DHT22;5112;54.088;13.446;2024-02-21T00:38:08;8.40;99.90
10143;DHT22;5112;54.088;13.446;2024-02-21T00:48:09;8.40;99.90
10143;DHT22;5112;54.088;13.446;2024-02-21T00:58:12;8.40;99.90
10143;DHT22;5112;54.088;13.446;2024-02-21T01:08:14;8.20;99.90
10143;DHT22;5112;54.088;13.446;2024-02-21T01:18:17;8.20;99.90
10143;DHT22;5112;54.088;13.446;2024-02-21T01:28:18;8.10;99.90
10143;DHT22;5112;54.088;13.446;2024-02-21T01:38:21;8.10;99.90
10143;DHT22;5112;54.088;13.446;2024-02-21T01:48:23;8.10;99.90
10143;DHT22;5112;54.088;13.446;2024-02-21T01:58:28;8.00;99.90
10143;DHT22;5112;54.088;13.446;2024-02-21T02:08:31;8.20;99.90
10143;DHT22;5112;54.088;13.446;2024-02-21T02:18:34;8.10;99.90
10143;DHT22;5112;54.088;13.446;2024-02-21T02:28:37;8.10;99.90
10143;DHT22;5112;54.088;13.446;2024-02-21T02:38:39;8.20;99.90
10143;DHT22;5112;54.088;13.446;2024-02-21T02:48:42;8.20;99.90
10143;DHT22;5112;54.088;13.446;2024-02-21T02:58:44;8.30;99.90
10143;DHT22;5112;54.088;13.446;2024-02-21T03:08:47;8.30;99.90
10143;DHT22;5112;54.088;13.446;2024-02-21T03:18:49;8.30;99.90
10143;DHT22;5112;54.088;13.446;2024-02-21T03:28:52;8.30;99.90
10143;DHT22;5112;54.088;13.446;2024-02-21T03:38:54;8.30;99.90
10143;DHT22;5112;54.088;13.446;2024-02-21T03:48:57;8.40;99.90
10143;DHT22;5112;54.088;13.446;2024-02-21T03:58:59;8.40;99.90
10143;DHT22;5112;54.088;13.446;2024-02-21T04:09:01;8.40;99.90
10143;DHT22;5112;54.088;13.446;2024-02-21T04:19:03;8.40;99.90
10143;DHT22;5112;54.088;13.446;2024-02-21T04:29:06;8.50;99.90
10143;DHT22;5112;54.088;13.446;2024-02-21T04:39:08;8.50;99.90
10143;DHT22;5112;54.088;13.446;2024-02-21T04:49:11;8.60;99.90
10143;DHT22;5112;54.088;13.446;2024-02-21T04:59:12;8.60;99.90
10143;DHT22;5112;54.088;13.446;2024-02-21T05:09:15;8.70;99.90
10143;DHT22;5112;54.088;13.446;2024-02-21T05:19:17;8.80;99.90
10143;DHT22;5112;54.088;13.446;2024-02-21T05:29:20;8.90;99.90
10143;DHT22;5112;54.088;13.446;2024-02-21T05:39:21;8.80;99.90
10143;DHT22;5112;54.088;13.446;2024-02-21T05:49:25;8.90;99.90
10143;DHT22;5112;54.088;13.446;2024-02-21T05:59:27;8.90;99.90
10143;DHT22;5112;54.088;13.446;2024-02-21T06:09:30;8.90;99.90
10143;DHT22;5112;54.088;13.446;2024-02-21T06:19:33;8.80;99.90
10143;DHT22;5112;54.088;13.446;2024-02-21T06:29:37;8.80;99.90
10143;DHT22;5112;54.088;13.446;2024-02-21T06:39:39;8.80;99.90
10143;DHT22;5112;54.088;13.446;2024-02-21T06:49:42;8.80;99.90
10143;DHT22;5112;54.088;13.446;2024-02-21T06:59:44;8.70;99.90
10143;DHT22;5112;54.088;13.446;2024-02-21T07:09:47;8.80;99.90
10143;DHT22;5112;54.088;13.446;2024-02-21T07:19:49;8.80;99.90
10143;DHT22;5112;54.088;13.446;2024-02-21T07:29:52;8.80;99.90
10143;DHT22;5112;54.088;13.446;2024-02-21T07:39:53;8.80;99.90
10143;DHT22;5112;54.088;13.446;2024-02-21T07:49:56;9.00;99.90
10143;DHT22;5112;54.088;13.446;2024-02-21T07:59:58;9.00;99.90
10143;DHT22;5112;54.088;13.446;2024-02-21T08:10:01;9.20;99.90
10143;DHT22;5112;54.088;13.446;2024-02-21T08:20:03;9.20;99.90
10143;DHT22;5112;54.088;13.446;2024-02-21T08:30:07;9.10;99.90
10143;DHT22;5112;54.088;13.446;2024-02-21T08:40:09;9.20;99.90
10143;DHT22;5112;54.088;13.446;2024-02-21T08:50:12;9.20;99.90
10143;DHT22;5112;54.088;13.446;2024-02-21T09:00:15;9.30;99.90
10143;DHT22;5112;54.088;13.446;2024-02-21T09:10:18;9.40;99.90
10143;DHT22;5112;54.088;13.446;2024-02-21T09:20:20;9.70;99.90
10143;DHT22;5112;54.088;13.446;2024-02-21T09:30:23;10.30;99.90
10143;DHT22;5112;54.088;13.446;2024-02-21T09:40:24;10.30;99.90
10143;DHT22;5112;54.088;13.446;2024-02-21T09:50:29;10.40;99.90
10143;DHT22;5112;54.088;13.446;2024-02-21T10:00:31;10.50;99.90
10143;DHT22;5112;54.088;13.446;2024-02-21T10:10:52;10.30;99.90
10143;DHT22;5112;54.088;13.446;2024-02-21T10:21:01;10.20;99.90
10143;DHT22;5112;54.088;13.446;2024-02-21T10:31:03;10.30;99.90
10143;DHT22;5112;54.088;13.446;2024-02-21T10:41:06;10.30;99.90
10143;DHT22;5112;54.088;13.446;2024-02-21T10:51:16;10.90;99.90
10143;DHT22;5112;54.088;13.446;2024-02-21T11:01:20;11.60;99.90
10143;DHT22;5112;54.088;13.446;2024-02-21T11:11:25;11.80;99.90
10143;DHT22;5112;54.088;13.446;2024-02-21T11:21:33;11.20;99.90
10143;DHT22;5112;54.088;13.446;2024-02-21T11:31:40;11.60;99.90
10143;DHT22;5112;54.088;13.446;2024-02-21T11:41:42;11.30;99.90
10143;DHT22;5112;54.088;13.446;2024-02-21T11:51:45;11.90;99.90
10143;DHT22;5112;54.088;13.446;2024-02-21T12:01:46;12.00;99.90
10143;DHT22;5112;54.088;13.446;2024-02-21T12:11:57;12.00;99.90
10143;DHT22;5112;54.088;13.446;2024-02-21T12:21:59;11.70;99.90
10143;DHT22;5112;54.088;13.446;2024-02-21T12:32:03;11.70;99.90
10143;DHT22;5112;54.088;13.446;2024-02-21T12:42:05;12.50;99.90
10143;DHT22;5112;54.088;13.446;2024-02-21T12:52:08;12.80;99.90
10143;DHT22;5112;54.088;13.446;2024-02-21T13:02:09;12.80;99.90
10143;DHT22;5112;54.088;13.446;2024-02-21T13:12:12;13.00;99.90
10143;DHT22;5112;54.088;13.446;2024-02-21T13:22:14;12.20;99.90
10143;DHT22;5112;54.088;13.446;2024-02-21T13:32:17;12.20;99.90
10143;DHT22;5112;54.088;13.446;2024-02-21T13:42:18;11.50;99.90
10143;DHT22;5112;54.088;13.446;2024-02-21T13:52:22;11.20;99.90
10143;DHT22;5112;54.088;13.446;2024-02-21T14:02:26;11.30;99.90
10143;DHT22;5112;54.088;13.446;2024-02-21T14:12:29;11.50;99.90
10143;DHT22;5112;54.088;13.446;2024-02-21T14:22:30;11.70;99.90
10143;DHT22;5112;54.088;13.446;2024-02-21T14:32:33;11.80;99.90
10143;DHT22;5112;54.088;13.446;2024-02-21T14:42:35;11.70;99.90
10143;DHT22;5112;54.088;13.446;2024-02-21T14:52:38;11.60;99.90
10143;DHT22;5112;54.088;13.446;2024-02-21T15:02:39;11.20;99.90
10143;DHT22;5112;54.088;13.446;2024-02-21T15:12:42;11.10;99.90
10143;DHT22;5112;54.088;13.446;2024-02-21T15:22:45;11.10;99.90
10143;DHT22;5112;54.088;13.446;2024-02-21T15:32:47;11.00;99.90
10143;DHT22;5112;54.088;13.446;2024-02-21T15:42:49;10.90;99.90
10143;DHT22;5112;54.088;13.446;2024-02-21T15:52:53;10.80;99.90
10143;DHT22;5112;54.088;13.446;2024-02-21T16:02:54;10.70;99.90
10143;DHT22;5112;54.088;13.446;2024-02-21T16:12:58;10.40;99.90
10143;DHT22;5112;54.088;13.446;2024-02-21T16:23:00;10.20;99.90
10143;DHT22;5112;54.088;13.446;2024-02-21T16:33:04;10.10;99.90
10143;DHT22;5112;54.088;13.446;2024-02-21T16:43:06;10.10;99.90
10143;DHT22;5112;54.088;13.446;2024-02-21T16:53:09;9.90;99.90
10143;DHT22;5112;54.088;13.446;2024-02-21T17:03:10;9.70;99.90
10143;DHT22;5112;54.088;13.446;2024-02-21T17:13:13;9.50;99.90
10143;DHT22;5112;54.088;13.446;2024-02-21T17:23:15;9.30;99.90
10143;DHT22;5112;54.088;13.446;2024-02-21T17:33:18;9.20;99.90
10143;DHT22;5112;54.088;13.446;2024-02-21T17:43:19;9.20;99.90
10143;DHT22;5112;54.088;13.446;2024-02-21T17:53:23;9.40;99.90
10143;DHT22;5112;54.088;13.446;2024-02-21T18:03:25;9.50;99.90
10143;DHT22;5112;54.088;13.446;2024-02-21T18:13:31;9.30;99.90
10143;DHT22;5112;54.088;13.446;2024-02-21T18:23:33;9.40;99.90
10143;DHT22;5112;54.088;13.446;2024-02-21T18:33:38;9.40;99.90
10143;DHT22;5112;54.088;13.446;2024-02-21T18:43:45;9.40;99.90
10143;DHT22;5112;54.088;13.446;2024-02-21T18:53:48;9.30;99.90
10143;DHT22;5112;54.088;13.446;2024-02-21T19:03:50;9.00;99.90
10143;DHT22;5112;54.088;13.446;2024-02-21T19:13:53;8.90;99.90
10143;DHT22;5112;54.088;13.446;2024-02-21T19:23:54;8.70;99.90
10143;DHT22;5112;54.088;13.446;2024-02-21T19:33:57;8.70;99.90
10143;DHT22;5112;54.088;13.446;2024-02-21T19:43:59;8.60;99.90
10143;DHT22;5112;54.088;13.446;2024-02-21T19:54:02;8.60;99.90
10143;DHT22;5112;54.088;13.446;2024-02-21T20:04:04;8.50;99.90
10143;DHT22;5112;54.088;13.446;2024-02-21T20:14:07;8.40;99.90
10143;DHT22;5112;54.088;13.446;2024-02-21T20:24:09;8.20;99.90
10143;DHT22;5112;54.088;13.446;2024-02-21T20:34:12;8.00;99.90
10143;DHT22;5112;54.088;13.446;2024-02-21T20:44:14;8.00;99.90
10143;DHT22;5112;54.088;13.446;2024-02-21T20:54:17;8.00;99.90
10143;DHT22;5112;54.088;13.446;2024-02-21T21:04:19;8.00;99.90
10143;DHT22;5112;54.088;13.446;2024-02-21T21:14:22;8.10;99.90
10143;DHT22;5112;54.088;13.446;2024-02-21T21:24:26;8.10;99.90
10143;DHT22;5112;54.088;13.446;2024-02-21T21:34:30;8.10;99.90
10143;DHT22;5112;54.088;13.446;2024-02-21T21:44:32;8.30;99.90
10143;DHT22;5112;54.088;13.446;2024-02-21T21:54:35;8.10;99.90
10143;DHT22;5112;54.088;13.446;2024-02-21T22:04:36;8.00;99.90
10143;DHT22;5112;54.088;13.446;2024-02-21T22:14:40;8.10;99.90
10143;DHT22;5112;54.088;13.446;2024-02-21T22:24:42;8.20;99.90
10143;DHT22;5112;54.088;13.446;2024-02-21T22:34:46;8.00;99.90
10143;DHT22;5112;54.088;13.446;2024-02-21T22:44:47;8.00;99.90
10143;DHT22;5112;54.088;13.446;2024-02-21T22:54:50;7.90;99.90
10143;DHT22;5112;54.088;13.446;2024-02-21T23:04:52;7.90;99.90
10143;DHT22;5112;54.088;13.446;2024-02-21T23:14:55;7.80;99.90
10143;DHT22;5112;54.088;13.446;2024-02-21T23:24:56;8.00;99.90
10143;DHT22;5112;54.088;13.446;2024-02-21T23:34:59;7.80;99.90
10143;DHT22;5112;54.088;13.446;2024-02-21T23:45:01;7.80;99.90
10143;DHT22;5112;54.088;13.446;2024-02-21T23:55:06;7.80;99.90
